• Join FlightAware (Why Join?)
  • Login
  • US Flag 
08:18AM EST


 

Airport Tracker/Info


-or-


 

Live Flight TrackerFlight Track Log ✈ GAJ12 ✈ 01-May-2013 ✈ KGCC - KSTL

Flight Track Log - Related Links

Times and Time Zones

All times are in EDT time to prevent confusion due to time zone crossing. See the GAJ12 flight status page for this flight to view local times or setup timezone preferences in your user account.

Time Position Orientation Groundspeed Altitude Reporting Facility
EDT Latitude Longitude Course Direction KTS MPH feet Rate Location/Type
06:21PM 44.0747 -104.5632 109° East  Level Estimated
06:22PM 44.0282 -104.4014 109° East  Level Estimated
06:23PM 43.9814 -104.2398 109° East  Level Estimated
06:24PM 43.9344 -104.0785 101° East  Level Estimated
06:24PM 44.5486 -105.5286 25° Northeast 286 329 16,000  Level Denver Center
06:25PM 43.8873 -103.9174 108° East  Level Estimated
06:25PM 44.5339 -105.3994 99° East 321 369 18,700  Level Denver Center
06:26PM 43.8398 -103.7567 111° Southeast  Level Estimated
06:26PM 44.4883 -105.2350 111° Southeast 358 412 21,300  Level Denver Center
06:27PM 43.8082 -103.5887 105° East  Level FlightAware Approximate
06:27PM 44.4494 -105.0922 111° Southeast 398 458 23,300  Level Denver Center
06:28PM 43.7763 -103.4209 105° East  Level FlightAware Approximate
06:28PM 44.4025 -104.9206 111° Southeast 418 481 25,500  Level Denver Center
06:29PM 43.7279 -103.2610 110° East  Level Estimated
06:29PM 44.3608 -104.7706 111° Southeast 429 494 27,400  Level Denver Center
06:30PM 44.3136 -104.5964 111° Southeast 430 495 29,600 1,920 Climbing Denver Center
06:31PM 44.2725 -104.4478 111° Southeast 429 494 31,500 1,560 Climbing Denver Center
06:32PM 44.2314 -104.3031 112° Southeast 422 486 32,900 1,200 Climbing Denver Center
06:34PM 44.1822 -104.1286 111° Southeast 431 496 34,000 960 Climbing Denver Center
06:35PM 44.1383 -103.9756 112° Southeast 442 509 34,900 960 Climbing Denver Center
06:36PM 44.0875 -103.7969 112° Southeast 444 511 36,000 960 Climbing Denver Center
06:37PM 44.0436 -103.6419 111° Southeast 447 514 37,000 960 Climbing Denver Center
06:38PM 43.9919 -103.4633 112° Southeast 446 513 38,000 720 Climbing Denver Center
06:39PM 43.9489 -103.3125 112° Southeast 443 510 38,600 480 Climbing Denver Center
06:40PM 43.8958 -103.1353 113° Southeast 443 510 39,000 180 Climbing Denver Center
06:41PM 43.8497 -102.9778 112° Southeast 452 520 39,000  Level Denver Center
06:42PM 43.7942 -102.7911 112° Southeast 464 534 39,000  Level Denver Center
06:43PM 43.7436 -102.6253 113° Southeast 477 549 39,000  Level Denver Center
06:44PM 43.6839 -102.4308 113° Southeast 486 559 39,000  Level Denver Center
06:45PM 43.6328 -102.2647 113° Southeast 488 562 39,000  Level Denver Center
06:46PM 43.5778 -102.0850 113° Southeast 487 560 39,000  Level Denver Center
06:47PM 43.5147 -101.8783 113° Southeast 488 562 39,000  Level Denver Center
06:48PM 43.4614 -101.7064 113° Southeast 488 562 39,000  Level Denver Center
06:49PM 43.4181 -101.5681 113° Southeast 491 565 39,000  Level Denver Center
06:50PM 43.3636 -101.3958 113° Southeast 493 567 39,000  Level Denver Center
06:51PM 43.2881 -101.1533 113° Southeast 494 568 39,000  Level Denver Center
06:52PM 43.2342 -100.9817 113° Southeast 493 567 39,000  Level Denver Center
06:53PM 43.1783 -100.8100 114° Southeast 494 568 39,000  Level Denver Center
06:55PM 43.1128 -100.6064 114° Southeast 494 568 39,000  Level Minneapolis Center
06:56PM 43.0575 -100.4350 114° Southeast 495 570 39,000  Level Minneapolis Center
06:57PM 43.0022 -100.2633 114° Southeast 495 570 39,000  Level Minneapolis Center
06:58PM 42.9336 -100.0594 115° Southeast 495 570 39,000  Level Minneapolis Center
06:59PM 42.8764 -99.8906 115° Southeast 493 567 39,000  Level Minneapolis Center
07:00PM 42.8247 -99.7333 114° Southeast 495 570 39,000  Level Minneapolis Center
07:01PM 42.7675 -99.5622 114° Southeast 495 570 39,000  Level Minneapolis Center
07:02PM 42.6997 -99.3581 114° Southeast 494 568 39,000  Level Minneapolis Center
07:03PM 42.6428 -99.1908 115° Southeast 488 562 39,000  Level Minneapolis Center
07:04PM 42.5872 -99.0281 115° Southeast 478 550 39,000  Level Minneapolis Center
07:05PM 42.5319 -98.8669 115° Southeast 471 542 39,000  Level Minneapolis Center
07:06PM 42.4758 -98.7072 115° Southeast 469 540 39,000  Level Minneapolis Center
07:07PM 42.4142 -98.5531 118° Southeast 465 535 39,000  Level Minneapolis Center
07:08PM 42.3497 -98.4047 120° Southeast 459 528 39,000  Level Minneapolis Center
07:09PM 42.2728 -98.2250 120° Southeast 458 527 39,000  Level Minneapolis Center
07:10PM 42.2094 -98.0764 120° Southeast 456 525 39,000  Level Minneapolis Center
07:11PM 42.1458 -97.9272 120° Southeast 456 525 39,000  Level Minneapolis Center
07:12PM 42.0869 -97.7911 120° Southeast 457 526 39,000  Level Minneapolis Center
07:13PM 42.0228 -97.6456 121° Southeast 453 521 39,000  Level Minneapolis Center
07:14PM 41.9461 -97.4706 120° Southeast 454 522 39,000  Level Minneapolis Center
07:15PM 41.8850 -97.3272 120° Southeast 446 513 39,000  Level Minneapolis Center
07:16PM 41.8217 -97.1850 121° Southeast 445 512 39,000  Level Minneapolis Center
07:17PM 41.7586 -97.0425 121° Southeast 444 511 39,000  Level Minneapolis Center
07:18PM 41.6953 -96.9008 121° Southeast 444 511 39,000  Level Minneapolis Center
07:19PM 41.6314 -96.7583 121° Southeast 446 513 39,000  Level Minneapolis Center
07:20PM 41.5542 -96.5886 121° Southeast 446 513 39,000  Level Minneapolis Center
07:21PM 41.4900 -96.4444 121° Southeast 451 519 39,000  Level Minneapolis Center
07:22PM 41.4300 -96.3119 121° Southeast 451 519 39,000  Level Minneapolis Center
07:23PM 41.3636 -96.1692 122° Southeast 453 521 39,000 480 Level Minneapolis Center
07:25PM 41.2864 -95.9983 121° Southeast 450 518 40,000 720 Climbing Minneapolis Center
07:26PM 41.2222 -95.8594 122° Southeast 443 510 40,600 480 Climbing Minneapolis Center
07:27PM 41.1600 -95.7197 121° Southeast 439 505 41,000 180 Climbing Minneapolis Center
07:28PM 41.1128 -95.5706 113° Southeast 450 518 41,000 -300 Level Minneapolis Center
07:29PM 41.0647 -95.4144 112° Southeast 456 525 40,500 -540 Descending Minneapolis Center
07:30PM 41.0139 -95.2514 112° Southeast 471 542 39,900 -660 Descending Minneapolis Center
07:31PM 40.9508 -95.0561 113° Southeast 479 551 39,200 -480 Descending Minneapolis Center
07:32PM 40.8992 -94.8942 113° Southeast 479 551 39,000 -300 Descending Minneapolis Center
07:33PM 40.8475 -94.7344 113° Southeast 475 547 38,600 -960 Descending Minneapolis Center
07:34PM 40.7958 -94.5764 113° Southeast 470 541 37,100 -1,500 Descending Minneapolis Center
07:35PM 40.7442 -94.4150 113° Southeast 470 541 35,500 -1,500 Descending Minneapolis Center
07:36PM 40.6897 -94.2569 114° Southeast 473 544 34,000 -1,260 Descending Minneapolis Center
07:37PM 40.6369 -94.1000 114° Southeast 473 544 33,000 -540 Descending Minneapolis Center
07:38PM 40.5742 -93.9100 113° Southeast 475 547 33,000  Level Minneapolis Center
07:39PM 40.5217 -93.7486 113° Southeast 477 549 33,000  Level Minneapolis Center
07:40PM 40.4708 -93.5928 113° Southeast 477 549 33,000  Level Minneapolis Center
07:41PM 40.4192 -93.4353 113° Southeast 476 548 33,000  Level Minneapolis Center
07:41PM 40.3967 -93.3717 115° Southeast 474 545 33,000  Level Kansas City Center
07:42PM 40.3347 -93.1850 113° Southeast 471 542 33,000  Level Kansas City Center
07:44PM 40.2789 -93.0219 114° Southeast 472 543 33,000  Level Kansas City Center
07:45PM 40.2278 -92.8711 114° Southeast 473 544 33,000  Level Kansas City Center
07:46PM 40.1764 -92.7219 114° Southeast 471 542 33,000 -840 Level Kansas City Center
07:47PM 40.1161 -92.5503 115° Southeast 466 536 31,300 -1,620 Descending Kansas City Center
07:48PM 40.0553 -92.4025 118° Southeast 457 526 29,800 -1,500 Descending Kansas City Center
07:49PM 39.9942 -92.2597 119° Southeast 456 525 28,300 -1,500 Descending Kansas City Center
07:50PM 39.9350 -92.1208 119° Southeast 446 513 26,800 -1,560 Descending Kansas City Center
07:51PM 39.8767 -91.9842 119° Southeast 440 506 25,100 -1,920 Descending Kansas City Center
07:52PM 39.8083 -91.8250 119° Southeast 431 496 22,900 -1,740 Descending Kansas City Center
07:53PM 39.7525 -91.6950 119° Southeast 422 486 21,600 -1,140 Descending Kansas City Center
07:54PM 39.6997 -91.5703 119° Southeast 405 466 20,600 -780 Descending Kansas City Center
07:55PM 39.6453 -91.4461 120° Southeast 400 460 20,000 -660 Descending Kansas City Center
07:56PM 39.5917 -91.3208 119° Southeast 392 451 19,300 -660 Descending Kansas City Center
07:57PM 39.5400 -91.2039 120° Southeast 379 436 18,700 -1,020 Descending Kansas City Center
07:58PM 39.4894 -91.0878 119° Southeast 372 428 17,200 -1,860 Descending Kansas City Center
07:59PM 39.4297 -90.9531 120° Southeast 363 418 14,900 -2,040 Descending Kansas City Center
08:00PM 39.3533 -90.8797 143° Southeast 351 404 13,000 -1,860 Descending Kansas City Center
08:01PM 39.2700 -90.8283 154° Southeast 339 390 11,200 -1,620 Descending Kansas City Center
08:02PM 39.1911 -90.8036 166° South 302 348 9,700 -1,500 Descending Kansas City Center
08:03PM 39.1242 -90.7547 150° Southeast 281 323 8,200 -1,500 Descending Kansas City Center
08:04PM 39.0578 -90.7042 149° Southeast 278 320 6,700 -1,500 Descending Kansas City Center
08:05PM 38.9917 -90.6528 149° Southeast 278 320 5,200 -1,560 Descending Kansas City Center
08:06PM 38.9214 -90.5983 149° Southeast 261 300 3,500 -840 Descending Kansas City Center
08:07PM 38.8706 -90.5589 149° Southeast 237 273 3,500 -120 Level Kansas City Center
08:08PM 38.8269 -90.5172 143° Southeast 213 245 3,300 -660 Descending Kansas City Center
08:09PM 38.7975 -90.4592 123° Southeast 200 230 2,200 -900 Descending Kansas City Center
08:10PM 38.7783 -90.4192 122° Southeast 157 181 1,500 -660 Descending Kansas City Center
08:11PM 38.7603 -90.3825 122° Southeast 133 153 900 -600 Descending Kansas City Center
08:13PM 38.7487 -90.3700 123° Southeast  Level Estimated